sensor_id;sensor_type;location;lat;lon;timestamp;pressure;altitude;pressure_sealevel;temperature;humidity
46382;BME280;66809;52.974;-2.514;2023-03-03T00:01:46;1022.4829860285046;;;4.682775803421565;34.74779025691005
46382;BME280;66809;52.974;-2.514;2023-03-03T00:03:47;1022.48609648861;;;4.688849584222621;34.719509224382854
46382;BME280;66809;52.974;-2.514;2023-03-03T00:05:46;1022.4894052938348;;;4.685547777125671;34.69238282786172
46382;BME280;66809;52.974;-2.514;2023-03-03T00:07:46;1022.4931991390627;;;4.686908827142974;34.676176773785166
46382;BME280;66809;52.974;-2.514;2023-03-03T00:09:46;1022.4985317079837;;;4.67740058470828;34.661390599626074
46382;BME280;66809;52.974;-2.514;2023-03-03T00:11:50;1022.5038077604415;;;4.684760338396672;34.63999596221758
46382;BME280;66809;52.974;-2.514;2023-03-03T00:13:47;1022.5089572372987;;;4.686610452431806;34.6109422496679
46382;BME280;66809;52.974;-2.514;2023-03-03T00:15:47;1022.5128653220252;;;4.681615077950316;34.56793869303678
46382;BME280;66809;52.974;-2.514;2023-03-03T00:17:47;1022.5176535693914;;;4.686748424199533;34.514265907952534
46382;BME280;66809;52.974;-2.514;2023-03-03T00:19:46;1022.5218917256899;;;4.694445475371163;34.46556746119709
46382;BME280;66809;52.974;-2.514;2023-03-03T00:21:48;1022.5261420594044;;;4.7033895780712776;34.424066299726626
46382;BME280;66809;52.974;-2.514;2023-03-03T00:23:46;1022.5302051796984;;;4.702845248968004;34.411428260498234
46382;BME280;66809;52.974;-2.514;2023-03-03T00:25:49;1022.5335683241027;;;4.707886175723475;34.3850131160769
46382;BME280;66809;52.974;-2.514;2023-03-03T00:27:46;1022.536524440308;;;4.705792955399904;34.34823209500989
46382;BME280;66809;52.974;-2.514;2023-03-03T00:29:47;1022.5392529300989;;;4.699509135835558;34.30999022392254
46382;BME280;66809;52.974;-2.514;2023-03-03T00:31:46;1022.5403406515746;;;4.701113831410745;34.26895294822563
46382;BME280;66809;52.974;-2.514;2023-03-03T00:33:49;1022.5419908605571;;;4.708009728691299;34.237514966080425
46382;BME280;66809;52.974;-2.514;2023-03-03T00:35:46;1022.5440167771343;;;4.716192828919808;34.21214300178717
46382;BME280;66809;52.974;-2.514;2023-03-03T00:37:46;1022.5463062556393;;;4.7290790223493095;34.18813266819708
46382;BME280;66809;52.974;-2.514;2023-03-03T00:39:46;1022.5491769032823;;;4.727141804308761;34.15956977581797
46382;BME280;66809;52.974;-2.514;2023-03-03T00:41:47;1022.5510839328779;;;4.735366915270359;34.12838247489951
46382;BME280;66809;52.974;-2.514;2023-03-03T00:43:46;1022.5523877713316;;;4.752000201266004;34.10327120247684
46382;BME280;66809;52.974;-2.514;2023-03-03T00:45:48;1022.5542720264258;;;4.753454205873635;34.07873887304986
46382;BME280;66809;52.974;-2.514;2023-03-03T00:47:46;1022.5562365571512;;;4.761370236701988;34.05953267633104
46382;BME280;66809;52.974;-2.514;2023-03-03T00:49:46;1022.5574180294585;;;4.765386717315049;34.043023545890726
46382;BME280;66809;52.974;-2.514;2023-03-03T00:51:47;1022.5600164267024;;;4.784913150938737;34.019729422333015
46382;BME280;66809;52.974;-2.514;2023-03-03T00:53:46;1022.5618893912123;;;4.797969158978542;34.00885221925624
46382;BME280;66809;52.974;-2.514;2023-03-03T00:55:47;1022.5637915021271;;;4.805011430604775;33.991969992834285
46382;BME280;66809;52.974;-2.514;2023-03-03T00:57:46;1022.5644969257577;;;4.810457408049499;33.976460765517594
46382;BME280;66809;52.974;-2.514;2023-03-03T00:59:46;1022.5663897414735;;;4.822580842950547;33.974417660450506
46382;BME280;66809;52.974;-2.514;2023-03-03T01:01:47;1022.5683720487492;;;4.852087774233227;33.9753698902913
46382;BME280;66809;52.974;-2.514;2023-03-03T01:03:46;1022.5724951042916;;;4.861255645600196;33.97437499922684
46382;BME280;66809;52.974;-2.514;2023-03-03T01:05:46;1022.5769510784528;;;4.871437103592104;33.970743710796775
46382;BME280;66809;52.974;-2.514;2023-03-03T01:07:47;1022.5809643865533;;;4.8757086519202515;33.96509491882863
46382;BME280;66809;52.974;-2.514;2023-03-03T01:09:46;1022.5850814164066;;;4.892504593406566;33.959178685661875
46382;BME280;66809;52.974;-2.514;2023-03-03T01:11:46;1022.5904115223336;;;4.905603848985539;33.95135199875762
46382;BME280;66809;52.974;-2.514;2023-03-03T01:13:48;1022.5961368712523;;;4.904832684311776;33.95286891060246
46382;BME280;66809;52.974;-2.514;2023-03-03T01:15:46;1022.602454589526;;;4.911989032409588;33.96487745998808
46382;BME280;66809;52.974;-2.514;2023-03-03T01:17:47;1022.6084208835971;;;4.912039441787573;33.978070669152096
46382;BME280;66809;52.974;-2.514;2023-03-03T01:19:46;1022.6152041904461;;;4.912064646435297;33.97865249323688
46382;BME280;66809;52.974;-2.514;2023-03-03T01:21:46;1022.6220767054278;;;4.908688997262194;33.97699148675928
46382;BME280;66809;52.974;-2.514;2023-03-03T01:23:47;1022.6288498715802;;;4.903915685167435;33.95797317344463
46382;BME280;66809;52.974;-2.514;2023-03-03T01:25:46;1022.63676772311;;;4.904360967286689;33.95273209956831
46382;BME280;66809;52.974;-2.514;2023-03-03T01:27:46;1022.6452672077702;;;4.919170583720737;33.95273595687666
46382;BME280;66809;52.974;-2.514;2023-03-03T01:29:46;1022.6522528502187;;;4.921692282088106;33.94665415454623
46382;BME280;66809;52.974;-2.514;2023-03-03T01:31:46;1022.6598124643077;;;4.911175319932453;33.95242854861378
46382;BME280;66809;52.974;-2.514;2023-03-03T01:33:46;1022.6669700338331;;;4.903708117708464;33.9559437651229
46382;BME280;66809;52.974;-2.514;2023-03-03T01:35:46;1022.6748614209206;;;4.907856709519433;33.957403792198356
46382;BME280;66809;52.974;-2.514;2023-03-03T01:37:46;1022.6831772950433;;;4.900156035954755;33.9542852964569
46382;BME280;66809;52.974;-2.514;2023-03-03T01:39:48;1022.691683601655;;;4.902306832639078;33.946119784531
46382;BME280;66809;52.974;-2.514;2023-03-03T01:41:47;1022.7010080515894;;;4.899090813493827;33.93951084035023
46382;BME280;66809;52.974;-2.514;2023-03-03T01:43:49;1022.7093422517654;;;4.896496510224524;33.93832839268885
46382;BME280;66809;52.974;-2.514;2023-03-03T01:46:29;1022.7169504544333;;;4.904134752711162;33.939573681305724
46382;BME280;66809;52.974;-2.514;2023-03-03T01:47:51;1022.7254223471605;;;4.8998067244597845;33.940241149305656
46382;BME280;66809;52.974;-2.514;2023-03-03T01:49:49;1022.7328673744468;;;4.901730682385685;33.9432325706173
46382;BME280;66809;52.974;-2.514;2023-03-03T01:51:49;1022.7394508753301;;;4.897993768301338;33.94594048586643
46382;BME280;66809;52.974;-2.514;2023-03-03T01:53:50;1022.7457346558829;;;4.8988843338687955;33.950395454043225
46382;BME280;66809;52.974;-2.514;2023-03-03T01:55:49;1022.751281001661;;;4.901085542991093;33.96192272816782
46382;BME280;66809;52.974;-2.514;2023-03-03T01:57:54;1022.756953184003;;;4.898488236437035;33.96965788428206
46382;BME280;66809;52.974;-2.514;2023-03-03T01:59:48;1022.7623309262719;;;4.8928189633353565;33.96714291549747
46382;BME280;66809;52.974;-2.514;2023-03-03T02:01:47;1022.7665314565345;;;4.88918108909055;33.96600965805822
46382;BME280;66809;52.974;-2.514;2023-03-03T02:03:47;1022.7687329049747;;;4.874622968404387;33.97210889380721
46382;BME280;66809;52.974;-2.514;2023-03-03T02:05:47;1022.770050913974;;;4.865155641537493;33.985044535515684
46382;BME280;66809;52.974;-2.514;2023-03-03T02:07:46;1022.7712160687851;;;4.8527279652444975;33.98606715487868
46382;BME280;66809;52.974;-2.514;2023-03-03T02:09:52;1022.7714997216191;;;4.839787798414826;33.99087557318224
46382;BME280;66809;52.974;-2.514;2023-03-03T02:11:48;1022.771136065128;;;4.822925887549648;34.00285588619987
46382;BME280;66809;52.974;-2.514;2023-03-03T02:13:46;1022.7706064237999;;;4.816898432034723;34.015209688537794
46382;BME280;66809;52.974;-2.514;2023-03-03T02:15:46;1022.7692283848147;;;4.805127864560507;34.02646244027899
46382;BME280;66809;52.974;-2.514;2023-03-03T02:17:49;1022.7684000679216;;;4.797549669497612;34.040297465033994
46382;BME280;66809;52.974;-2.514;2023-03-03T02:19:51;1022.7667432559927;;;4.7863407731262715;34.053825383269746
46382;BME280;66809;52.974;-2.514;2023-03-03T02:21:47;1022.7646231160439;;;4.785902121139748;34.05842819677726
46382;BME280;66809;52.974;-2.514;2023-03-03T02:23:52;1022.7629926293882;;;4.792101924195475;34.06205405693933
46382;BME280;66809;52.974;-2.514;2023-03-03T02:25:58;1022.759898952242;;;4.789136178027759;34.05693929708193
46382;BME280;66809;52.974;-2.514;2023-03-03T02:27:46;1022.7568204228285;;;4.779038057081099;34.06042762267305
46382;BME280;66809;52.974;-2.514;2023-03-03T02:29:46;1022.7541563186498;;;4.787715082443011;34.073971786833106
46382;BME280;66809;52.974;-2.514;2023-03-03T02:31:47;1022.7514174645372;;;4.799248632069209;34.07429998133111
46382;BME280;66809;52.974;-2.514;2023-03-03T02:33:48;1022.748454140369;;;4.80751398137173;34.066994460526814
46382;BME280;66809;52.974;-2.514;2023-03-03T02:35:47;1022.7440040201166;;;4.803550223594893;34.04894624609072
46382;BME280;66809;52.974;-2.514;2023-03-03T02:37:46;1022.7390937164638;;;4.810780410565798;34.031798348491385
46382;BME280;66809;52.974;-2.514;2023-03-03T02:39:47;1022.7334052417816;;;4.8056134592431095;34.01787704532666
46382;BME280;66809;52.974;-2.514;2023-03-03T02:41:49;1022.7290995949274;;;4.797354739419634;33.99641851463181
46382;BME280;66809;52.974;-2.514;2023-03-03T02:43:51;1022.7267224131439;;;4.785819414276194;33.98264911448085
46382;BME280;66809;52.974;-2.514;2023-03-03T02:45:46;1022.7247468340655;;;4.776718765731794;33.97035407692206
46382;BME280;66809;52.974;-2.514;2023-03-03T02:47:48;1022.7223744730145;;;4.768955201335448;33.95635193478997
46382;BME280;66809;52.974;-2.514;2023-03-03T02:49:46;1022.7206409734322;;;4.758150276171969;33.943443385143134
46382;BME280;66809;52.974;-2.514;2023-03-03T02:51:46;1022.7190979383638;;;4.745258766307407;33.927737325902825
46382;BME280;66809;52.974;-2.514;2023-03-03T02:53:46;1022.7187987452554;;;4.724513595409718;33.91564620826975
46382;BME280;66809;52.974;-2.514;2023-03-03T02:55:46;1022.7188993308816;;;4.700550642118616;33.89854234273281
46382;BME280;66809;52.974;-2.514;2023-03-03T02:57:46;1022.7187722549623;;;4.672129497792369;33.86918236393106
46382;BME280;66809;52.974;-2.514;2023-03-03T02:59:46;1022.7194531775705;;;4.6379671445895;33.83386987352239
46382;BME280;66809;52.974;-2.514;2023-03-03T03:01:46;1022.7212012426957;;;4.608381879644806;33.81009001635892
46382;BME280;66809;52.974;-2.514;2023-03-03T03:03:47;1022.7239820159598;;;4.58822977087659;33.78887679436298
46382;BME280;66809;52.974;-2.514;2023-03-03T03:05:47;1022.7260811256983;;;4.563628373610496;33.76877583041254
46382;BME280;66809;52.974;-2.514;2023-03-03T03:07:46;1022.7282336181054;;;4.546662202926487;33.75486044590607
46382;BME280;66809;52.974;-2.514;2023-03-03T03:09:46;1022.7314285480778;;;4.531317528046946;33.7348240355105
46382;BME280;66809;52.974;-2.514;2023-03-03T03:11:47;1022.7344950491309;;;4.511698240798591;33.70964819917258
46382;BME280;66809;52.974;-2.514;2023-03-03T03:13:46;1022.7366224517247;;;4.487508547981458;33.67337385107995
46382;BME280;66809;52.974;-2.514;2023-03-03T03:15:46;1022.7381318537745;;;4.464056440839138;33.638005324692216
46382;BME280;66809;52.974;-2.514;2023-03-03T03:17:47;1022.7383684877806;;;4.425896800508539;33.591931181220566
46382;BME280;66809;52.974;-2.514;2023-03-03T03:19:46;1022.7394657226216;;;4.3952122974202785;33.555234006342104
46382;BME280;66809;52.974;-2.514;2023-03-03T03:21:46;1022.7401331906678;;;4.3513362151299;33.52016655830598
46382;BME280;66809;52.974;-2.514;2023-03-03T03:23:46;1022.74189810645;;;4.302741523608092;33.498221816673826
46382;BME280;66809;52.974;-2.514;2023-03-03T03:25:47;1022.7436523299659;;;4.251144490196813;33.475243788638544
46382;BME280;66809;52.974;-2.514;2023-03-03T03:27:46;1022.7449790314581;;;4.207553607933326;33.44212107330359
46382;BME280;66809;52.974;-2.514;2023-03-03T03:29:46;1022.7473592971164;;;4.1513441460465605;33.41568576136116
46382;BME280;66809;52.974;-2.514;2023-03-03T03:31:46;1022.7499822555422;;;4.114114433237706;33.399688801489745
46382;BME280;66809;52.974;-2.514;2023-03-03T03:33:46;1022.7534187941058;;;4.064802561256221;33.38917849191647
46382;BME280;66809;52.974;-2.514;2023-03-03T03:35:46;1022.7575774988098;;;4.0186916464118925;33.383588936912986
46382;BME280;66809;52.974;-2.514;2023-03-03T03:37:46;1022.7616679536987;;;3.9723118998855975;33.370253456828145
46382;BME280;66809;52.974;-2.514;2023-03-03T03:39:46;1022.7677794467193;;;3.9326012090000377;33.356614397209995
46382;BME280;66809;52.974;-2.514;2023-03-03T03:41:46;1022.7721249306474;;;3.897738176507222;33.35039723997808
46382;BME280;66809;52.974;-2.514;2023-03-03T03:43:47;1022.7762898571232;;;3.865743062587669;33.33639938076619
46382;BME280;66809;52.974;-2.514;2023-03-03T03:45:46;1022.7803755347048;;;3.8313438493787664;33.31975180491837
46382;BME280;66809;52.974;-2.514;2023-03-03T03:47:46;1022.7836789556646;;;3.80605314127433;33.30026855120507
46382;BME280;66809;52.974;-2.514;2023-03-03T03:49:47;1022.787168145931;;;3.7743693621419965;33.28442461387769
46382;BME280;66809;52.974;-2.514;2023-03-03T03:51:46;1022.7899736892471;;;3.748566620540934;33.277055137172844
46382;BME280;66809;52.974;-2.514;2023-03-03T03:53:46;1022.7919130652922;;;3.7310561545904286;33.27541407492289
46382;BME280;66809;52.974;-2.514;2023-03-03T03:55:47;1022.794390351919;;;3.7240290131552958;33.28331208057504
46382;BME280;66809;52.974;-2.514;2023-03-03T03:57:46;1022.7974153477452;;;3.7199273397362154;33.29744201760464
46382;BME280;66809;52.974;-2.514;2023-03-03T03:59:48;1022.7986317053591;;;3.7257394306511133;33.31109161451526
46382;BME280;66809;52.974;-2.514;2023-03-03T04:01:47;1022.7992345169897;;;3.7312340050846164;33.313751897994386
46382;BME280;66809;52.974;-2.514;2023-03-03T04:03:46;1022.7991300351566;;;3.733462143198744;33.307486092647856
46382;BME280;66809;52.974;-2.514;2023-03-03T04:05:46;1022.7996597038672;;;3.7401245302838864;33.291534426608486
46382;BME280;66809;52.974;-2.514;2023-03-03T04:07:47;1022.799572407203;;;3.7431424140568472;33.281676121205514
46382;BME280;66809;52.974;-2.514;2023-03-03T04:09:46;1022.7984509544401;;;3.7466895931047017;33.272780121170484
46382;BME280;66809;52.974;-2.514;2023-03-03T04:11:46;1022.7961866971274;;;3.751194542880367;33.25960871021455
46382;BME280;66809;52.974;-2.514;2023-03-03T04:13:47;1022.79556848229;;;3.7593121284869047;33.24310364805151
46382;BME280;66809;52.974;-2.514;2023-03-03T04:15:46;1022.7955412883025;;;3.772015180556546;33.231159291189975
46382;BME280;66809;52.974;-2.514;2023-03-03T04:17:46;1022.7963436141839;;;3.7890786011342454;33.236901825464074
46382;BME280;66809;52.974;-2.514;2023-03-03T04:19:47;1022.7965493693152;;;3.8107981696147317;33.24585172091851
46382;BME280;66809;52.974;-2.514;2023-03-03T04:21:46;1022.7971947133627;;;3.8372998969160648;33.260521547100396
46382;BME280;66809;52.974;-2.514;2023-03-03T04:23:46;1022.7963984282577;;;3.866688699677104;33.2619890877202
46382;BME280;66809;52.974;-2.514;2023-03-03T04:25:46;1022.7955226882151;;;3.901732967137798;33.26238076242284
46382;BME280;66809;52.974;-2.514;2023-03-03T04:27:46;1022.7953111145519;;;3.9315700404803717;33.26732033703426
46382;BME280;66809;52.974;-2.514;2023-03-03T04:29:47;1022.7942748644917;;;3.9656229173810593;33.264625411638455
46382;BME280;66809;52.974;-2.514;2023-03-03T04:31:46;1022.7936310616561;;;3.9855869820548047;33.25954879525305
46382;BME280;66809;52.974;-2.514;2023-03-03T04:33:46;1022.7925910838438;;;4.004680324594788;33.2544916635539
46382;BME280;66809;52.974;-2.514;2023-03-03T04:35:46;1022.7920080853918;;;4.034177905243592;33.24539873508448
46382;BME280;66809;52.974;-2.514;2023-03-03T04:37:46;1022.7901290366459;;;4.051715232678633;33.23797098330595
46382;BME280;66809;52.974;-2.514;2023-03-03T04:39:46;1022.786787920332;;;4.065631517680773;33.21711021812722
46382;BME280;66809;52.974;-2.514;2023-03-03T04:41:46;1022.7850244677908;;;4.081619507126784;33.201362536572326
46382;BME280;66809;52.974;-2.514;2023-03-03T04:43:46;1022.7828773104508;;;4.0899020642476644;33.193772143778844
46382;BME280;66809;52.974;-2.514;2023-03-03T04:45:46;1022.7804917583829;;;4.097977603751631;33.18832328906677
46382;BME280;66809;52.974;-2.514;2023-03-03T04:47:47;1022.778190431863;;;4.107990872272224;33.191948898772665
46382;BME280;66809;52.974;-2.514;2023-03-03T04:49:46;1022.7751693489614;;;4.13334607594648;33.19248584754735
46382;BME280;66809;52.974;-2.514;2023-03-03T04:51:46;1022.773013420172;;;4.150696411792652;33.19218232602334
46382;BME280;66809;52.974;-2.514;2023-03-03T04:53:47;1022.7717224964371;;;4.152722906070008;33.18446901273908
46382;BME280;66809;52.974;-2.514;2023-03-03T04:55:49;1022.7702647901946;;;4.151019142134135;33.1686536720505
46382;BME280;66809;52.974;-2.514;2023-03-03T04:57:47;1022.7682428983848;;;4.1570076642427765;33.162443226994654
46382;BME280;66809;52.974;-2.514;2023-03-03T04:59:47;1022.7675368309515;;;4.154539367062874;33.17230340430537
46382;BME280;66809;52.974;-2.514;2023-03-03T05:01:46;1022.7665675529763;;;4.1573202626495895;33.183807107090146
46382;BME280;66809;52.974;-2.514;2023-03-03T05:03:47;1022.7656699543459;;;4.158933350957495;33.196776405432914
46382;BME280;66809;52.974;-2.514;2023-03-03T05:05:47;1022.7656616182772;;;4.161394991925024;33.215649996605336
46382;BME280;66809;52.974;-2.514;2023-03-03T05:07:47;1022.7655167518449;;;4.167610357519364;33.22552076362747
46382;BME280;66809;52.974;-2.514;2023-03-03T05:09:46;1022.7651810936669;;;4.172842746736744;33.23278501644966
46382;BME280;66809;52.974;-2.514;2023-03-03T05:11:46;1022.7658249308496;;;4.180518224868533;33.24530539514377
46382;BME280;66809;52.974;-2.514;2023-03-03T05:13:47;1022.7659053502846;;;4.177065207306662;33.26481990645111
46382;BME280;66809;52.974;-2.514;2023-03-03T05:15:50;1022.7660496817194;;;4.175200074518622;33.27501338576998
46382;BME280;66809;52.974;-2.514;2023-03-03T05:17:47;1022.76578469175;;;4.171016128118783;33.27970459273657
46382;BME280;66809;52.974;-2.514;2023-03-03T05:19:46;1022.7654169733291;;;4.166040697349449;33.266717654441
46382;BME280;66809;52.974;-2.514;2023-03-03T05:21:46;1022.7650480096231;;;4.15282514016538;33.25347251475913
46382;BME280;66809;52.974;-2.514;2023-03-03T05:23:47;1022.7643158290332;;;4.144421898378634;33.248268338160024
46382;BME280;66809;52.974;-2.514;2023-03-03T05:25:47;1022.7644268084053;;;4.1316180192880445;33.24548623906642
46382;BME280;66809;52.974;-2.514;2023-03-03T05:27:47;1022.7641203302635;;;4.124584227068066;33.24366418371067
46382;BME280;66809;52.974;-2.514;2023-03-03T05:29:46;1022.7648226463155;;;4.110698299568706;33.24510878825767
46382;BME280;66809;52.974;-2.514;2023-03-03T05:31:46;1022.7647187434321;;;4.108260123159769;33.24246554508423
46382;BME280;66809;52.974;-2.514;2023-03-03T05:33:47;1022.7658489037414;;;4.105553097026183;33.238467890861386
46382;BME280;66809;52.974;-2.514;2023-03-03T05:35:46;1022.7670714184259;;;4.101142310679359;33.241805080757324
46382;BME280;66809;52.974;-2.514;2023-03-03T05:37:46;1022.7693132035905;;;4.107550908701992;33.25012199323348
46382;BME280;66809;52.974;-2.514;2023-03-03T05:39:46;1022.772247784349;;;4.1193112578866184;33.27543816585851
46382;BME280;66809;52.974;-2.514;2023-03-03T05:41:46;1022.774542820193;;;4.122162844388056;33.29294810882191
46382;BME280;66809;52.974;-2.514;2023-03-03T05:43:47;1022.776485154889;;;4.131448232870645;33.29503856409468
46382;BME280;66809;52.974;-2.514;2023-03-03T05:45:46;1022.7783909210181;;;4.141699796899336;33.29770226076293
46382;BME280;66809;52.974;-2.514;2023-03-03T05:47:46;1022.7811749372441;;;4.152564680474839;33.294257126309915
46382;BME280;66809;52.974;-2.514;2023-03-03T05:49:46;1022.7842021872609;;;4.155070562778875;33.28778595098117
46382;BME280;66809;52.974;-2.514;2023-03-03T05:51:47;1022.7864568693766;;;4.164648772848323;33.27721988807592
46382;BME280;66809;52.974;-2.514;2023-03-03T05:53:46;1022.7868054210555;;;4.186475894356153;33.26809406285717
46382;BME280;66809;52.974;-2.514;2023-03-03T05:55:46;1022.786782013199;;;4.206506847286823;33.258354948740276
46382;BME280;66809;52.974;-2.514;2023-03-03T05:57:46;1022.7867939392763;;;4.2264957957930385;33.24309077911526
46382;BME280;66809;52.974;-2.514;2023-03-03T05:59:46;1022.7866036428256;;;4.249759592092762;33.2192146021396
46382;BME280;66809;52.974;-2.514;2023-03-03T06:01:46;1022.7878273719665;;;4.266278733889471;33.193223607574026
46382;BME280;66809;52.974;-2.514;2023-03-03T06:03:46;1022.789603213703;;;4.286929672973582;33.1652969111955
46382;BME280;66809;52.974;-2.514;2023-03-03T06:05:46;1022.7908054843722;;;4.302112988171157;33.13834712104706
46382;BME280;66809;52.974;-2.514;2023-03-03T06:07:46;1022.7921431116469;;;4.316640987227996;33.11702271228589
46382;BME280;66809;52.974;-2.514;2023-03-03T06:09:47;1022.7940441811984;;;4.330555672722436;33.09346983401037
46382;BME280;66809;52.974;-2.514;2023-03-03T06:11:46;1022.7963455975621;;;4.345923816623531;33.07261761244531
46382;BME280;66809;52.974;-2.514;2023-03-03T06:13:46;1022.7992315534552;;;4.365457343015251;33.05691078679579
46382;BME280;66809;52.974;-2.514;2023-03-03T06:15:47;1022.8034082885089;;;4.376910356132503;33.04249877508893
46382;BME280;66809;52.974;-2.514;2023-03-03T06:17:46;1022.8089655789939;;;4.387203954498153;33.03004217699809
46382;BME280;66809;52.974;-2.514;2023-03-03T06:19:46;1022.8146341776865;;;4.400009595401866;33.030934190561695
46382;BME280;66809;52.974;-2.514;2023-03-03T06:21:47;1022.8202036980289;;;4.424061353127199;33.03277987802178
46382;BME280;66809;52.974;-2.514;2023-03-03T06:23:46;1022.8257370476016;;;4.436337692195335;33.0195287692318
46382;BME280;66809;52.974;-2.514;2023-03-03T06:25:46;1022.8318521012814;;;4.4484207930227475;33.011705153059474
46382;BME280;66809;52.974;-2.514;2023-03-03T06:27:47;1022.8381310602733;;;4.461512073442632;33.004646103614256
46382;BME280;66809;52.974;-2.514;2023-03-03T06:29:46;1022.8456427354494;;;4.476550757452878;32.98860334278301
46382;BME280;66809;52.974;-2.514;2023-03-03T06:31:46;1022.8545597380942;;;4.48500441273006;32.97286772212416
46382;BME280;66809;52.974;-2.514;2023-03-03T06:33:47;1022.8631397792421;;;4.495212234640156;32.955030467702066
46382;BME280;66809;52.974;-2.514;2023-03-03T06:35:49;1022.8722810335476;;;4.503042433354612;32.93702376305537
46382;BME280;66809;52.974;-2.514;2023-03-03T06:37:46;1022.8817299371871;;;4.504758087736483;32.923392238756925
46382;BME280;66809;52.974;-2.514;2023-03-03T06:39:46;1022.8921696085434;;;4.511447442461924;32.90350391348177
46382;BME280;66809;52.974;-2.514;2023-03-03T06:41:46;1022.9020740916351;;;4.5270406556477765;32.882503242141695
46382;BME280;66809;52.974;-2.514;2023-03-03T06:43:47;1022.9130761759669;;;4.5331335060610405;32.85660227883356
46382;BME280;66809;52.974;-2.514;2023-03-03T06:45:46;1022.9252475132422;;;4.534143439929807;32.82920536151342
46382;BME280;66809;52.974;-2.514;2023-03-03T06:47:46;1022.9368377665069;;;4.528291093068876;32.80628773641298
46382;BME280;66809;52.974;-2.514;2023-03-03T06:49:47;1022.9496630829055;;;4.526352099856952;32.782501561655984
46382;BME280;66809;52.974;-2.514;2023-03-03T06:51:46;1022.9644679229388;;;4.522211908135213;32.75718301547
46382;BME280;66809;52.974;-2.514;2023-03-03T06:53:47;1022.9804624982188;;;4.524026638922739;32.72991057466487
46382;BME280;66809;52.974;-2.514;2023-03-03T06:55:46;1022.9965304426884;;;4.5272108210009865;32.690588108874095
46382;BME280;66809;52.974;-2.514;2023-03-03T06:57:46;1023.012406305747;;;4.535486338946468;32.65993868220546
46382;BME280;66809;52.974;-2.514;2023-03-03T06:59:49;1023.0284714842641;;;4.536850932836714;32.63012878029723
46382;BME280;66809;52.974;-2.514;2023-03-03T07:01:47;1023.0446529301864;;;4.535349371241878;32.60047866464738
46382;BME280;66809;52.974;-2.514;2023-03-03T07:03:46;1023.061126515768;;;4.536517728800111;32.55017003582719
46382;BME280;66809;52.974;-2.514;2023-03-03T07:05:47;1023.0787710861257;;;4.543078112669391;32.50140669807429
46382;BME280;66809;52.974;-2.514;2023-03-03T07:07:46;1023.0966501581403;;;4.5465317011941835;32.45281556326747
46382;BME280;66809;52.974;-2.514;2023-03-03T07:09:48;1023.11442878895;;;4.540374458129205;32.40789969793919
46382;BME280;66809;52.974;-2.514;2023-03-03T07:11:46;1023.131387544043;;;4.536930920219896;32.36974926449539